Weather at Bismarck Municipal Airport

Public forecast

Using degrees Fahrenheit for public forecast. Weather courtesy of forecast.io.

Current aviation weather report (METAR) for Bismarck Municipal Airport

Retrieved 2021/09/23 18:52 UTC (2 hours ago):

KBIS 231852Z 34011KT 10SM CLR 26/04 A2990 RMK AO2 SLP122 T02560044

Aviation forecast (TAF) for Bismarck Municipal Airport

Retrieved 2021/09/23 18:36 UTC (2 hours ago):

TAF KBIS 231733Z 2318/2418 34012G20KT P6SM SCT150 BKN250 FM240000 35007KT P6SM SCT200 FM240700 34007KT P6SM OVC070 FM241400 32012KT P6SM FEW250